Time;durP1;ratioP1;P1;durP2;ratioP2;P2;SDS_P1;SDS_P2;PMS_P1;PMS_P2;Temp;Humidity;BMP_temperature;BMP_pressure;BME280_temperature;BME280_humidity;BME280_pressure;Samples;Min_cycle;Max_cycle;Signal;HPM_P1;HPM_P2
2023/06/19 00:01:02;;;;;;;11.63;9.85;;;;;;;19.66;100.00;93674.19;5010452;28;20047;-55
2023/06/19 00:03:29;;;;;;;12.35;10.27;;;;;;;19.48;100.00;93677.16;5025471;28;20044;-55
2023/06/19 00:05:56;;;;;;;14.82;10.80;;;;;;;19.28;100.00;93678.59;5030645;28;20038;-58
2023/06/19 00:08:22;;;;;;;13.82;11.07;;;;;;;19.16;100.00;93677.59;5029126;28;20363;-58
2023/06/19 00:10:49;;;;;;;13.23;10.63;;;;;;;19.26;100.00;93681.09;5026231;28;20052;-62
2023/06/19 00:13:16;;;;;;;13.02;10.27;;;;;;;19.31;100.00;93676.84;5022689;28;20105;-57
2023/06/19 00:15:43;;;;;;;12.35;10.70;;;;;;;19.27;100.00;93670.72;5031122;28;20050;-55
2023/06/19 00:18:10;;;;;;;12.38;10.30;;;;;;;19.26;100.00;93678.28;5035068;28;20499;-56
2023/06/19 00:20:39;;;;;;;13.57;10.65;;;;;;;19.22;100.00;93668.63;5026891;28;20049;-60
2023/06/19 00:23:10;;;;;;;13.73;11.50;;;;;;;19.18;100.00;93665.25;5030109;28;20041;-59
2023/06/19 00:25:37;;;;;;;15.30;10.43;;;;;;;19.14;100.00;93677.31;5030724;28;20037;-56
2023/06/19 00:28:04;;;;;;;13.73;10.77;;;;;;;19.10;100.00;93670.41;5045493;28;20053;-55
2023/06/19 00:30:32;;;;;;;13.95;11.30;;;;;;;19.07;100.00;93676.91;5017690;28;20068;-61
2023/06/19 00:33:03;;;;;;;14.68;10.82;;;;;;;19.05;100.00;93674.59;5029917;28;20130;-60
2023/06/19 00:35:30;;;;;;;12.83;10.27;;;;;;;19.01;100.00;93671.25;5030694;28;20436;-55
2023/06/19 00:38:00;;;;;;;12.73;10.18;;;;;;;18.96;100.00;93671.91;5029114;28;20046;-58
2023/06/19 00:40:31;;;;;;;14.25;10.88;;;;;;;18.94;100.00;93688.31;5018228;28;20801;-55
2023/06/19 00:42:58;;;;;;;12.73;10.10;;;;;;;18.92;100.00;93685.25;5029693;28;20068;-56
2023/06/19 00:45:26;;;;;;;16.90;13.60;;;;;;;18.88;100.00;93684.66;5022910;28;20446;-55
2023/06/19 00:47:54;;;;;;;16.17;13.10;;;;;;;18.88;100.00;93684.66;5024979;28;20045;-55
2023/06/19 00:50:21;;;;;;;15.25;11.95;;;;;;;18.84;100.00;93690.38;5028828;28;20380;-56
2023/06/19 00:52:49;;;;;;;14.98;10.60;;;;;;;18.85;100.00;93693.94;5016745;28;20042;-58
2023/06/19 00:55:17;;;;;;;12.57;10.07;;;;;;;18.90;100.00;93690.50;5029744;28;20048;-59
2023/06/19 00:57:43;;;;;;;13.95;10.35;;;;;;;18.91;100.00;93692.03;5030069;28;20046;-57
2023/06/19 01:00:12;;;;;;;13.00;10.53;;;;;;;18.83;100.00;93699.19;5016340;28;20055;-56
2023/06/19 01:02:39;;;;;;;13.35;10.52;;;;;;;18.86;100.00;93693.47;5020674;28;20049;-56
2023/06/19 01:05:06;;;;;;;14.05;11.57;;;;;;;18.94;100.00;93708.53;5010016;28;20483;-59
2023/06/19 01:07:42;;;;;;;21.67;12.60;;;;;;;18.91;100.00;93711.50;5023473;28;20408;-57
2023/06/19 01:10:14;;;;;;;14.18;11.85;;;;;;;18.99;100.00;93711.91;5028648;28;20048;-54
2023/06/19 01:12:50;;;;;;;13.60;10.97;;;;;;;18.89;100.00;93764.03;5029174;28;20045;-58
2023/06/19 01:15:18;;;;;;;13.13;9.70;;;;;;;18.81;100.00;93746.94;5028767;28;20119;-58
2023/06/19 01:17:47;;;;;;;11.60;8.65;;;;;;;19.43;96.97;93772.44;5028982;28;20072;-54
2023/06/19 01:20:14;;;;;;;11.68;8.27;;;;;;;19.71;93.63;93775.78;5027967;28;20127;-54
2023/06/19 01:22:45;;;;;;;10.93;8.52;;;;;;;19.84;92.90;93767.94;5029013;28;20049;-54
2023/06/19 01:25:13;;;;;;;14.73;12.33;;;;;;;19.87;92.84;93766.19;5013908;28;20076;-56
2023/06/19 01:27:42;;;;;;;17.08;13.00;;;;;;;19.88;93.24;93770.50;5028728;28;20136;-60
2023/06/19 01:30:11;;;;;;;10.68;8.20;;;;;;;19.84;93.83;93775.50;5019921;28;20680;-59
2023/06/19 01:33:00;;;;;;;12.52;8.40;;;;;;;19.84;93.28;93795.78;5020510;28;20045;-57
2023/06/19 01:35:29;;;;;;;9.20;7.88;;;;;;;19.79;94.17;93802.00;5027794;28;20110;-55
2023/06/19 01:37:56;;;;;;;9.37;7.60;;;;;;;19.73;94.84;93804.69;5025340;28;20064;-60
2023/06/19 01:40:25;;;;;;;11.45;7.95;;;;;;;19.75;94.90;93799.41;5027951;28;20801;-59
2023/06/19 01:42:54;;;;;;;10.02;7.28;;;;;;;19.66;96.29;93799.47;5018525;28;20103;-63
2023/06/19 01:45:21;;;;;;;8.38;6.38;;;;;;;19.51;97.59;93809.78;5024862;28;20041;-56
2023/06/19 01:47:47;;;;;;;9.07;6.63;;;;;;;19.45;98.33;93809.69;5028725;28;20052;-59
2023/06/19 01:50:15;;;;;;;8.73;6.27;;;;;;;19.35;98.96;93803.41;5027637;28;20136;-57
2023/06/19 01:52:41;;;;;;;7.80;6.00;;;;;;;19.26;99.73;93806.28;5028290;28;20509;-56
2023/06/19 01:55:09;;;;;;;7.70;6.00;;;;;;;19.28;99.48;93794.69;5026289;28;20043;-57
2023/06/19 01:57:39;;;;;;;6.72;5.28;;;;;;;19.25;99.07;93792.84;4999298;28;20041;-57
2023/06/19 02:00:07;;;;;;;7.00;5.28;;;;;;;19.24;99.14;93791.31;5027452;28;20053;-56
2023/06/19 02:02:34;;;;;;;6.80;5.23;;;;;;;19.28;98.93;93794.69;5020705;28;20391;-56
2023/06/19 02:05:01;;;;;;;7.05;5.18;;;;;;;19.10;99.49;93784.44;4991460;28;20068;-60
2023/06/19 02:07:28;;;;;;;8.60;5.57;;;;;;;19.10;99.89;93790.78;5022053;28;20127;-58
2023/06/19 02:09:54;;;;;;;8.60;5.10;;;;;;;19.15;99.66;93789.34;5016100;28;20042;-59
2023/06/19 02:12:21;;;;;;;7.10;5.25;;;;;;;19.18;99.48;93793.97;5028675;28;20049;-60
2023/06/19 02:14:48;;;;;;;7.37;5.30;;;;;;;19.12;99.80;93791.06;5028654;28;20486;-56
2023/06/19 02:17:14;;;;;;;8.15;5.72;;;;;;;19.20;99.72;93794.28;5028299;28;20056;-56
2023/06/19 02:19:42;;;;;;;7.32;5.18;;;;;;;19.09;99.88;93800.34;5028559;28;20050;-59
2023/06/19 02:22:09;;;;;;;6.95;4.90;;;;;;;19.13;100.00;93800.19;5028257;28;20053;-60
2023/06/19 02:24:36;;;;;;;6.45;5.07;;;;;;;19.15;100.00;93794.91;5015584;28;20042;-57
2023/06/19 02:27:05;;;;;;;9.07;4.67;;;;;;;19.07;100.00;93808.41;5042702;28;20046;-59
2023/06/19 02:29:33;;;;;;;11.45;4.95;;;;;;;19.05;100.00;93812.91;5025856;28;20632;-56
2023/06/19 02:32:01;;;;;;;7.45;4.57;;;;;;;19.00;100.00;93808.00;5028026;28;20148;-56
2023/06/19 02:34:28;;;;;;;6.85;4.80;;;;;;;18.95;100.00;93812.19;5028364;28;20048;-56
2023/06/19 02:36:54;;;;;;;8.30;4.90;;;;;;;18.82;100.00;93792.97;5028423;28;20075;-56
2023/06/19 02:39:22;;;;;;;8.13;4.70;;;;;;;18.93;100.00;93809.91;5027745;28;20500;-56
2023/06/19 02:41:49;;;;;;;7.68;5.00;;;;;;;19.03;100.00;93818.94;5028285;28;20041;-56
2023/06/19 02:44:16;;;;;;;7.05;4.70;;;;;;;19.00;100.00;93811.56;5027836;28;20065;-60
2023/06/19 02:46:43;;;;;;;6.55;4.57;;;;;;;19.05;100.00;93810.13;5028461;28;20056;-57
2023/06/19 02:49:09;;;;;;;36.80;25.25;;;;;;;19.09;100.00;93819.81;5027863;28;20053;-59
2023/06/19 02:51:36;;;;;;;8.50;5.13;;;;;;;19.01;100.00;93829.00;5027807;28;20397;-53
2023/06/19 02:54:06;;;;;;;8.98;4.70;;;;;;;19.00;100.00;93822.69;5028136;28;20046;-55
2023/06/19 02:56:33;;;;;;;6.78;4.60;;;;;;;18.84;100.00;93825.88;5028305;28;20156;-56
2023/06/19 02:59:00;;;;;;;8.60;4.38;;;;;;;18.86;100.00;93832.47;5027629;28;20126;-60
2023/06/19 03:01:26;;;;;;;6.05;4.00;;;;;;;18.84;100.00;93820.31;5015295;28;20041;-58
2023/06/19 03:03:53;;;;;;;6.27;4.00;;;;;;;18.86;100.00;93826.94;5007175;28;20046;-56
2023/06/19 03:06:20;;;;;;;5.50;3.83;;;;;;;18.96;100.00;93820.06;5016097;28;20045;-59
2023/06/19 03:08:47;;;;;;;6.20;4.10;;;;;;;19.01;100.00;93824.19;5028472;28;20033;-56
2023/06/19 03:11:14;;;;;;;5.85;3.80;;;;;;;19.07;100.00;93821.53;5027356;28;20049;-55
2023/06/19 03:13:49;;;;;;;5.65;3.80;;;;;;;19.05;99.49;93819.22;5014835;28;20042;-57
2023/06/19 03:16:16;;;;;;;5.60;3.80;;;;;;;18.96;99.95;93824.88;5027383;28;20430;-56
2023/06/19 03:18:44;;;;;;;6.32;4.00;;;;;;;18.95;100.00;93832.44;5028187;28;20047;-56
2023/06/19 03:21:15;;;;;;;5.10;3.58;;;;;;;18.98;99.62;93819.59;5027941;28;20038;-56
2023/06/19 03:23:42;;;;;;;6.70;3.40;;;;;;;19.02;99.37;93811.09;5027754;28;20429;-56
2023/06/19 03:26:10;;;;;;;5.57;3.58;;;;;;;19.02;99.18;93819.44;5011997;28;20057;-60
2023/06/19 03:28:37;;;;;;;5.63;3.50;;;;;;;19.01;99.04;93829.75;5022179;28;20052;-56
2023/06/19 03:31:03;;;;;;;5.38;3.55;;;;;;;19.00;98.82;93814.34;5019327;28;20053;-55
2023/06/19 03:33:30;;;;;;;5.20;3.33;;;;;;;19.02;98.88;93799.97;5027972;28;20041;-56
2023/06/19 03:35:57;;;;;;;5.25;3.40;;;;;;;18.99;99.09;93795.34;5027264;28;20037;-56
2023/06/19 03:38:24;;;;;;;4.50;3.20;;;;;;;19.06;98.71;93798.53;5027090;28;21541;-58
2023/06/19 03:40:50;;;;;;;6.07;3.77;;;;;;;18.95;100.00;93803.84;5027563;28;20038;-60
2023/06/19 03:43:17;;;;;;;5.68;4.28;;;;;;;18.57;100.00;93799.69;5029677;28;20461;-53
2023/06/19 03:45:44;;;;;;;6.90;4.97;;;;;;;18.72;100.00;93808.13;5030249;28;20042;-55
2023/06/19 03:48:11;;;;;;;7.15;4.93;;;;;;;18.49;100.00;93810.41;5030653;28;20245;-57
2023/06/19 03:50:38;;;;;;;8.63;5.25;;;;;;;18.44;100.00;93807.50;5021006;28;20093;-56
2023/06/19 03:53:04;;;;;;;7.50;4.97;;;;;;;18.63;100.00;93810.94;5027865;28;20048;-59
2023/06/19 03:55:31;;;;;;;6.95;4.63;;;;;;;18.71;100.00;93815.72;5031453;28;20045;-57
2023/06/19 03:57:58;;;;;;;7.65;5.10;;;;;;;18.49;100.00;93802.06;5030454;28;20057;-54
2023/06/19 04:00:25;;;;;;;7.00;4.88;;;;;;;18.26;100.00;93797.22;5021013;28;20044;-56
2023/06/19 04:02:52;;;;;;;6.22;4.70;;;;;;;18.58;100.00;93804.03;5017557;28;20088;-60
2023/06/19 04:05:19;;;;;;;6.80;4.83;;;;;;;18.74;100.00;93811.22;5011904;28;20041;-57
2023/06/19 04:07:47;;;;;;;8.70;5.40;;;;;;;18.71;100.00;93821.25;5023134;28;20049;-60
2023/06/19 04:10:13;;;;;;;7.75;5.30;;;;;;;18.69;100.00;93820.19;5030860;28;20448;-55
2023/06/19 04:12:40;;;;;;;7.10;4.90;;;;;;;18.74;100.00;93823.09;5031374;28;20050;-56
2023/06/19 04:15:08;;;;;;;6.95;4.80;;;;;;;18.79;100.00;93823.69;5030622;28;20049;-56
2023/06/19 04:17:36;;;;;;;6.50;4.67;;;;;;;18.85;100.00;93819.03;5030882;28;20044;-56
2023/06/19 04:20:10;;;;;;;8.40;4.60;;;;;;;18.88;100.00;93821.66;5030675;28;20279;-59
2023/06/19 04:22:46;;;;;;;6.93;4.35;;;;;;;18.88;100.00;93818.13;5029586;28;20038;-59
2023/06/19 04:25:13;;;;;;;7.53;5.18;;;;;;;18.99;100.00;93817.59;5030596;28;20053;-58
2023/06/19 04:27:40;;;;;;;6.97;4.53;;;;;;;18.73;100.00;93821.56;5030689;28;20413;-58
2023/06/19 04:30:07;;;;;;;8.37;5.17;;;;;;;18.87;100.00;93820.09;5022512;28;20044;-58
2023/06/19 04:32:40;;;;;;;6.85;4.80;;;;;;;18.92;100.00;93825.03;5029974;28;20041;-62
2023/06/19 04:35:11;;;;;;;7.30;4.93;;;;;;;19.07;100.00;93829.88;5030242;28;20080;-60
2023/06/19 04:37:37;;;;;;;7.55;4.50;;;;;;;19.07;100.00;93827.09;5030219;28;20508;-57
2023/06/19 04:40:06;;;;;;;8.27;4.60;;;;;;;19.07;100.00;93827.88;5003757;28;20041;-56
2023/06/19 04:42:33;;;;;;;8.17;5.00;;;;;;;19.14;100.00;93835.88;5030347;28;20049;-57
2023/06/19 04:45:00;;;;;;;7.80;5.07;;;;;;;19.14;100.00;93830.31;5029709;28;20061;-54
2023/06/19 04:47:27;;;;;;;7.45;4.50;;;;;;;19.23;100.00;93843.38;5029787;28;20041;-55
2023/06/19 04:50:09;;;;;;;9.73;4.57;;;;;;;19.06;100.00;93845.06;5021967;28;20048;-56
2023/06/19 04:52:37;;;;;;;8.23;4.65;;;;;;;18.88;100.00;93848.69;5021855;28;20047;-57
2023/06/19 04:55:09;;;;;;;6.20;4.50;;;;;;;18.85;100.00;93839.28;5003778;28;20049;-58
2023/06/19 04:57:36;;;;;;;8.30;4.85;;;;;;;18.72;100.00;93841.50;5029682;28;20060;-58
2023/06/19 05:00:09;;;;;;;6.85;4.75;;;;;;;18.83;100.00;93838.22;5029616;28;20054;-56
2023/06/19 05:02:37;;;;;;;7.68;5.00;;;;;;;19.03;100.00;93845.97;5029590;28;20051;-56
2023/06/19 05:05:04;;;;;;;7.53;4.80;;;;;;;19.20;100.00;93846.38;5029452;28;20055;-57
2023/06/19 05:07:31;;;;;;;7.97;4.70;;;;;;;19.48;100.00;93850.50;5017487;28;20053;-57
2023/06/19 05:09:58;;;;;;;8.13;4.47;;;;;;;19.52;100.00;93851.06;5027467;28;20041;-53
2023/06/19 05:12:25;;;;;;;8.00;4.60;;;;;;;19.67;100.00;93850.34;5030055;28;20041;-59
2023/06/19 05:14:52;;;;;;;9.70;4.82;;;;;;;19.80;100.00;93858.44;5028417;28;20045;-57
2023/06/19 05:17:19;;;;;;;7.65;4.40;;;;;;;19.41;100.00;93864.00;5014768;28;20471;-54
2023/06/19 05:19:45;;;;;;;7.67;4.63;;;;;;;19.19;100.00;93855.94;5029808;28;20146;-56
2023/06/19 05:22:13;;;;;;;6.95;4.45;;;;;;;18.98;100.00;93861.31;5027587;28;20072;-57
2023/06/19 05:24:40;;;;;;;6.38;4.70;;;;;;;19.18;100.00;93869.09;5029213;28;20041;-57
2023/06/19 05:27:07;;;;;;;7.45;4.80;;;;;;;18.91;100.00;93870.00;5028684;28;20609;-59
2023/06/19 05:29:33;;;;;;;9.05;4.90;;;;;;;18.68;100.00;93869.44;5026512;28;20049;-57
2023/06/19 05:32:00;;;;;;;7.43;4.90;;;;;;;18.65;100.00;93856.50;5024487;28;20059;-54
2023/06/19 05:34:27;;;;;;;6.13;4.60;;;;;;;18.68;100.00;93858.34;5028001;28;20047;-54
2023/06/19 05:36:54;;;;;;;7.05;4.90;;;;;;;18.60;100.00;93859.91;5028535;28;20038;-58
2023/06/19 05:39:20;;;;;;;5.88;4.60;;;;;;;18.57;100.00;93863.63;5028628;28;20073;-56
2023/06/19 05:41:47;;;;;;;7.93;4.85;;;;;;;18.46;100.00;93872.47;5029237;28;20041;-59
2023/06/19 05:44:18;;;;;;;6.50;4.77;;;;;;;18.35;100.00;93875.75;5028672;28;20045;-54
2023/06/19 05:46:45;;;;;;;7.43;4.97;;;;;;;18.37;100.00;93866.91;5027744;28;20456;-60
2023/06/19 05:49:12;;;;;;;6.47;4.88;;;;;;;18.39;100.00;93870.03;5022251;28;20053;-54
2023/06/19 05:51:39;;;;;;;6.80;5.13;;;;;;;18.30;100.00;93853.38;5021545;28;20044;-54
2023/06/19 05:54:05;;;;;;;7.88;5.20;;;;;;;18.09;100.00;93864.22;5027867;28;20060;-56
2023/06/19 05:56:33;;;;;;;7.77;5.27;;;;;;;18.31;100.00;93866.81;5018012;28;20257;-59
2023/06/19 05:59:01;;;;;;;10.13;5.40;;;;;;;18.47;100.00;93862.09;5026364;28;20053;-59
2023/06/19 06:01:28;;;;;;;7.55;5.57;;;;;;;18.68;100.00;93858.34;5009488;28;20046;-60
2023/06/19 06:03:56;;;;;;;7.88;5.97;;;;;;;18.60;100.00;93861.94;5009140;28;20046;-60
2023/06/19 06:06:23;;;;;;;8.25;5.90;;;;;;;18.83;100.00;93866.00;5026050;28;21899;-59
2023/06/19 06:08:54;;;;;;;7.33;5.87;;;;;;;18.99;100.00;93860.06;5027967;28;20110;-60
2023/06/19 06:11:22;;;;;;;8.32;6.28;;;;;;;19.43;100.00;93873.41;5027655;28;20429;-58
2023/06/19 06:13:48;;;;;;;8.30;6.15;;;;;;;20.63;100.00;93872.38;5027722;28;20048;-60
2023/06/19 06:16:15;;;;;;;8.23;6.18;;;;;;;20.40;100.00;93868.41;5026060;28;20405;-57
2023/06/19 06:18:42;;;;;;;9.57;6.53;;;;;;;20.05;100.00;93862.72;5026697;28;20038;-57
2023/06/19 06:21:08;;;;;;;9.40;6.63;;;;;;;20.01;100.00;93857.34;5014480;28;20042;-61
2023/06/19 06:23:35;;;;;;;10.45;6.82;;;;;;;20.06;100.00;93864.25;5026735;28;20041;-58
2023/06/19 06:26:02;;;;;;;11.80;7.30;;;;;;;20.15;100.00;93866.97;5024856;28;20049;-57
2023/06/19 06:28:30;;;;;;;10.15;7.43;;;;;;;19.86;100.00;93860.13;5017313;28;20033;-57
2023/06/19 06:30:56;;;;;;;11.13;7.45;;;;;;;20.20;100.00;93851.59;5015576;28;20494;-55
2023/06/19 06:33:23;;;;;;;10.37;7.90;;;;;;;20.07;100.00;93858.22;5026867;28;20148;-58
2023/06/19 06:35:51;;;;;;;9.82;7.80;;;;;;;20.26;100.00;93860.81;5027779;28;20037;-61
2023/06/19 06:38:18;;;;;;;10.02;8.38;;;;;;;19.83;100.00;93858.28;5026828;28;20054;-58
2023/06/19 06:40:45;;;;;;;10.07;8.40;;;;;;;20.28;100.00;93861.09;5015599;28;20058;-60
2023/06/19 06:43:12;;;;;;;11.40;8.73;;;;;;;20.32;100.00;93854.09;5025171;28;20114;-61
2023/06/19 06:45:41;;;;;;;10.60;8.73;;;;;;;20.27;100.00;93851.22;5027803;28;20394;-59
2023/06/19 06:48:08;;;;;;;11.27;8.80;;;;;;;20.35;100.00;93861.50;5027283;28;20057;-61
2023/06/19 06:50:35;;;;;;;13.48;9.60;;;;;;;20.37;100.00;93866.59;5027668;28;20502;-57
2023/06/19 06:53:02;;;;;;;11.95;9.25;;;;;;;20.46;100.00;93871.28;5026636;28;20056;-57
2023/06/19 06:55:29;;;;;;;11.30;9.15;;;;;;;20.43;100.00;93877.84;5026917;28;20076;-58
2023/06/19 06:57:56;;;;;;;12.63;9.37;;;;;;;20.64;100.00;93871.09;5027381;28;20457;-58
2023/06/19 07:00:22;;;;;;;11.70;9.00;;;;;;;21.46;100.00;93887.31;5026482;28;20402;-61
2023/06/19 07:02:50;;;;;;;11.23;9.70;;;;;;;22.37;100.00;93892.69;5025879;28;20452;-57
2023/06/19 07:05:17;;;;;;;12.38;9.05;;;;;;;21.79;100.00;93900.91;5026859;28;20053;-57
2023/06/19 07:07:44;;;;;;;11.40;8.88;;;;;;;24.17;95.25;93886.75;5026862;28;20166;-57
2023/06/19 07:10:11;;;;;;;11.63;9.20;;;;;;;22.87;100.00;93902.78;5027393;28;20470;-57
2023/06/19 07:12:48;;;;;;;11.48;9.02;;;;;;;23.84;96.12;93899.34;5027764;28;20045;-58
2023/06/19 07:15:15;;;;;;;10.32;8.40;;;;;;;24.22;91.72;93892.34;5027005;28;20439;-57
2023/06/19 07:17:44;;;;;;;10.00;8.90;;;;;;;25.14;86.97;93903.19;5024952;28;20049;-63
2023/06/19 07:20:11;;;;;;;10.45;8.57;;;;;;;26.69;76.12;93889.66;5029929;28;20056;-58
2023/06/19 07:22:38;;;;;;;10.83;8.50;;;;;;;26.81;73.72;93891.09;5031442;28;20344;-63
2023/06/19 07:25:05;;;;;;;9.07;8.18;;;;;;;27.03;72.14;93883.75;5025791;28;20046;-64
2023/06/19 07:27:32;;;;;;;9.43;8.43;;;;;;;27.53;69.19;93885.38;5022720;28;20038;-57
2023/06/19 07:29:59;;;;;;;9.55;8.10;;;;;;;26.95;71.07;93900.47;5027798;28;20061;-57
2023/06/19 07:32:26;;;;;;;8.68;7.70;;;;;;;28.30;66.53;93878.59;5031315;28;20046;-59
2023/06/19 07:34:53;;;;;;;9.37;7.97;;;;;;;29.22;59.91;93885.22;5030558;28;20041;-59
2023/06/19 07:37:20;;;;;;;8.73;7.63;;;;;;;28.44;61.54;93880.19;5022093;28;20046;-57
2023/06/19 07:39:49;;;;;;;7.97;6.70;;;;;;;29.41;58.53;93876.66;5012698;28;20457;-63
2023/06/19 07:42:18;;;;;;;8.50;7.32;;;;;;;30.65;52.13;93866.50;5015447;28;20575;-65
2023/06/19 07:44:45;;;;;;;7.97;7.18;;;;;;;30.07;52.57;93870.28;5031894;28;20043;-58
2023/06/19 07:47:13;;;;;;;8.27;6.83;;;;;;;30.73;50.96;93866.56;5031284;28;20107;-63
2023/06/19 07:49:40;;;;;;;8.00;7.20;;;;;;;29.62;52.23;93871.91;5032055;28;20047;-57
2023/06/19 07:52:09;;;;;;;9.00;7.40;;;;;;;26.81;61.20;93871.38;5028444;28;20041;-58
2023/06/19 07:54:36;;;;;;;10.32;7.43;;;;;;;25.14;71.71;93865.94;5020293;28;20049;-57
2023/06/19 07:57:03;;;;;;;8.80;7.90;;;;;;;24.86;71.31;93866.72;5029862;28;20091;-57
2023/06/19 07:59:30;;;;;;;8.37;7.27;;;;;;;25.08;74.14;93855.47;5018549;28;20063;-61
2023/06/19 08:01:56;;;;;;;8.80;7.75;;;;;;;23.89;79.04;93862.94;5031897;28;20052;-58
2023/06/19 08:04:23;;;;;;;9.70;7.60;;;;;;;23.61;78.69;93870.47;5030390;28;21432;-57
2023/06/19 08:06:50;;;;;;;8.98;7.57;;;;;;;24.03;77.74;93866.81;5031359;28;20140;-57
2023/06/19 08:09:16;;;;;;;9.65;7.53;;;;;;;24.13;76.48;93862.50;5031027;28;20505;-57
2023/06/19 08:11:43;;;;;;;9.57;7.60;;;;;;;24.36;74.91;93870.22;5031310;28;20049;-59
2023/06/19 08:14:10;;;;;;;8.95;7.65;;;;;;;23.94;76.77;93867.03;5030378;28;20041;-59
2023/06/19 08:16:37;;;;;;;8.70;7.72;;;;;;;23.93;77.48;93863.47;5025281;28;20167;-60
2023/06/19 08:19:03;;;;;;;9.27;7.60;;;;;;;24.36;74.40;93859.75;5023503;28;20054;-58
2023/06/19 08:21:30;;;;;;;8.95;7.85;;;;;;;24.42;72.86;93854.91;5029561;28;20048;-57
2023/06/19 08:23:58;;;;;;;10.93;7.50;;;;;;;24.44;72.98;93860.03;5019864;28;20661;-61
2023/06/19 08:26:25;;;;;;;9.07;7.55;;;;;;;25.00;71.16;93860.06;5027114;28;20684;-58
2023/06/19 08:28:52;;;;;;;8.63;7.38;;;;;;;25.36;69.64;93863.09;5030333;28;20055;-63
2023/06/19 08:31:18;;;;;;;9.30;7.90;;;;;;;24.95;71.47;93860.84;5030366;28;20045;-61
2023/06/19 08:33:48;;;;;;;10.35;7.88;;;;;;;25.35;69.31;93866.41;5046428;28;20045;-58
2023/06/19 08:36:18;;;;;;;8.87;7.60;;;;;;;25.79;67.05;93861.94;5029286;28;20053;-64
2023/06/19 08:38:47;;;;;;;8.32;7.38;;;;;;;26.06;64.82;93857.53;5021140;28;20147;-60
2023/06/19 08:41:13;;;;;;;8.52;7.63;;;;;;;26.66;62.72;93868.94;5010662;28;20038;-60
2023/06/19 08:43:41;;;;;;;10.73;7.70;;;;;;;29.02;55.34;93863.97;5025654;28;20049;-59
2023/06/19 08:46:13;;;;;;;8.32;7.47;;;;;;;29.65;51.86;93864.41;5030072;28;20040;-56
2023/06/19 08:48:41;;;;;;;8.90;7.23;;;;;;;30.90;46.22;93865.44;5030779;28;20041;-57
2023/06/19 08:51:10;;;;;;;16.58;7.38;;;;;;;31.95;41.85;93862.50;5030553;28;20041;-57
2023/06/19 08:53:45;;;;;;;8.57;7.38;;;;;;;31.25;42.04;93853.50;5017353;28;20050;-60
2023/06/19 08:56:12;;;;;;;8.35;6.97;;;;;;;30.74;43.34;93845.41;5029687;28;20410;-58
2023/06/19 08:58:39;;;;;;;7.20;6.50;;;;;;;31.99;40.84;93860.06;5017822;28;20045;-58
2023/06/19 09:01:05;;;;;;;7.40;6.60;;;;;;;32.56;39.97;93859.22;5029844;28;20418;-57
2023/06/19 09:03:32;;;;;;;7.15;6.45;;;;;;;30.47;42.32;93858.94;5030120;28;20044;-59
2023/06/19 09:06:18;;;;;;;9.27;6.45;;;;;;;31.63;40.11;93847.38;5029278;28;20079;-59
2023/06/19 09:08:44;;;;;;;7.57;6.72;;;;;;;33.51;36.14;93838.34;5030289;28;20042;-59
2023/06/19 09:11:12;;;;;;;7.05;6.35;;;;;;;34.46;34.50;93844.03;5028676;28;20038;-64
2023/06/19 09:13:39;;;;;;;7.30;6.60;;;;;;;32.68;36.89;93843.38;5030377;28;20053;-58
2023/06/19 09:16:07;;;;;;;7.45;6.65;;;;;;;31.84;37.55;93847.31;5029245;28;20425;-58
2023/06/19 09:18:48;;;;;;;6.82;6.13;;;;;;;32.48;36.09;93844.19;5029097;28;20042;-57
2023/06/19 09:21:21;;;;;;;7.10;6.40;;;;;;;33.73;34.11;93828.28;5029405;28;20112;-59
2023/06/19 09:23:51;;;;;;;7.43;5.85;;;;;;;34.03;34.04;93824.59;5018856;28;20046;-62
2023/06/19 09:26:19;;;;;;;7.40;5.83;;;;;;;34.11;32.94;93827.44;5026504;28;20041;-56
2023/06/19 09:28:46;;;;;;;6.82;5.82;;;;;;;35.08;32.26;93830.97;5029851;28;20340;-57
2023/06/19 09:31:13;;;;;;;7.53;6.00;;;;;;;36.27;30.39;93831.66;5016247;28;20091;-58
2023/06/19 09:33:40;;;;;;;7.50;5.95;;;;;;;35.58;31.54;93825.25;5029742;28;20041;-63
2023/06/19 09:36:07;;;;;;;8.35;5.93;;;;;;;34.94;32.40;93827.63;5029552;28;20033;-65
2023/06/19 09:38:39;;;;;;;6.30;5.70;;;;;;;36.30;29.89;93831.25;5023715;28;20042;-60
2023/06/19 09:41:07;;;;;;;7.13;5.68;;;;;;;35.77;29.92;93826.81;5010589;28;20531;-63
2023/06/19 09:43:42;;;;;;;6.78;6.07;;;;;;;36.84;28.58;93832.66;5026093;28;20095;-58
2023/06/19 09:46:11;;;;;;;6.70;5.75;;;;;;;32.84;32.92;93832.78;5028664;28;20405;-58
2023/06/19 09:48:45;;;;;;;6.30;5.50;;;;;;;33.69;32.39;93822.22;5028930;28;20405;-59
2023/06/19 09:51:20;;;;;;;6.53;5.70;;;;;;;35.40;29.95;93821.63;5028591;28;20052;-59
2023/06/19 09:53:49;;;;;;;6.10;5.50;;;;;;;35.73;29.36;93817.91;5001767;28;20445;-62
2023/06/19 09:56:21;;;;;;;6.25;5.63;;;;;;;35.03;30.07;93814.81;5028401;28;20038;-59
2023/06/19 09:58:52;;;;;;;6.80;5.70;;;;;;;35.23;29.85;93820.81;5028888;28;20033;-58
2023/06/19 10:01:20;;;;;;;6.60;5.93;;;;;;;35.33;29.94;93813.13;5028192;28;20096;-61
2023/06/19 10:03:47;;;;;;;7.63;6.00;;;;;;;35.61;29.36;93809.06;5028513;28;20397;-63
2023/06/19 10:06:15;;;;;;;9.98;6.75;;;;;;;33.69;31.92;93804.41;5028531;28;20037;-58
2023/06/19 10:08:43;;;;;;;6.95;6.25;;;;;;;31.10;35.37;93810.06;5028202;28;20406;-58
2023/06/19 10:11:11;;;;;;;6.55;5.85;;;;;;;32.68;33.71;93803.59;5028123;28;20052;-57
2023/06/19 10:13:41;;;;;;;6.90;5.88;;;;;;;34.21;31.47;93801.97;5025001;28;20421;-58
2023/06/19 10:16:19;;;;;;;6.03;5.43;;;;;;;36.54;28.41;93803.88;5028276;28;20055;-57
2023/06/19 10:18:47;;;;;;;13.05;6.10;;;;;;;36.85;27.46;93806.34;5015160;28;20046;-57
2023/06/19 10:21:18;;;;;;;6.70;5.60;;;;;;;37.48;26.62;93798.31;5027731;28;20095;-57
2023/06/19 10:23:58;;;;;;;6.07;5.47;;;;;;;36.29;27.96;93795.44;5028152;28;20045;-65
2023/06/19 10:26:34;;;;;;;6.72;5.63;;;;;;;33.32;31.28;93778.22;5015177;28;21409;-59
2023/06/19 10:29:04;;;;;;;8.30;6.53;;;;;;;33.33;32.50;93786.19;5027319;28;20049;-58
2023/06/19 10:31:30;;;;;;;7.15;6.10;;;;;;;35.14;29.76;93782.25;5018761;28;20488;-64
2023/06/19 10:33:57;;;;;;;7.00;6.30;;;;;;;34.69;29.73;93784.09;5028270;28;20053;-60
2023/06/19 10:36:25;;;;;;;6.13;5.53;;;;;;;34.55;29.83;93787.19;5027182;28;20493;-66
2023/06/19 10:38:53;;;;;;;6.10;5.43;;;;;;;34.18;29.79;93786.03;5028479;28;20052;-57
2023/06/19 10:41:24;;;;;;;7.73;5.80;;;;;;;34.68;28.76;93782.59;5027624;28;20045;-57
2023/06/19 10:44:10;;;;;;;6.57;5.70;;;;;;;34.69;28.94;93770.59;5028032;28;20044;-60
2023/06/19 10:46:37;;;;;;;6.68;6.05;;;;;;;33.11;31.70;93778.44;5027013;28;20041;-63
2023/06/19 10:49:06;;;;;;;7.22;6.53;;;;;;;31.85;33.83;93777.88;5026394;28;20509;-57
2023/06/19 10:51:40;;;;;;;7.38;6.68;;;;;;;30.89;35.31;93770.41;5027630;28;20044;-58
2023/06/19 10:54:07;;;;;;;7.10;6.40;;;;;;;30.83;36.07;93776.19;4989904;28;20050;-61
2023/06/19 10:56:34;;;;;;;7.45;6.65;;;;;;;30.88;37.06;93771.69;5016576;28;20482;-64
2023/06/19 10:59:03;;;;;;;7.10;6.40;;;;;;;31.02;35.19;93768.25;5017680;28;20514;-61
2023/06/19 11:01:38;;;;;;;7.53;6.47;;;;;;;31.22;35.13;93763.09;5015821;28;20041;-59
2023/06/19 11:04:10;;;;;;;7.38;6.28;;;;;;;31.58;34.36;93771.69;5027344;28;20049;-58
2023/06/19 11:06:38;;;;;;;7.03;6.20;;;;;;;31.87;34.41;93768.03;5028066;28;20063;-61
2023/06/19 11:09:10;;;;;;;6.93;6.22;;;;;;;32.16;34.05;93766.69;5027240;28;20046;-63
2023/06/19 11:11:45;;;;;;;7.00;6.28;;;;;;;32.27;33.95;93768.41;5028121;28;20045;-59
2023/06/19 11:14:14;;;;;;;7.03;6.32;;;;;;;32.52;33.66;93767.88;5014887;28;20052;-60
2023/06/19 11:16:47;;;;;;;9.50;6.65;;;;;;;31.82;34.28;93764.06;5002591;28;20437;-60
2023/06/19 11:19:17;;;;;;;7.87;6.70;;;;;;;31.38;35.59;93763.97;5027935;28;20048;-58
2023/06/19 11:21:49;;;;;;;7.40;6.70;;;;;;;29.89;37.83;93764.44;5028132;28;20044;-59
2023/06/19 11:24:17;;;;;;;7.65;6.82;;;;;;;31.24;36.26;93757.63;5027569;28;20079;-64
2023/06/19 11:26:50;;;;;;;7.88;6.72;;;;;;;31.47;35.50;93757.06;5027538;28;20042;-59
2023/06/19 11:29:23;;;;;;;7.03;6.30;;;;;;;31.65;35.80;93765.31;5026847;28;20067;-58
2023/06/19 11:31:51;;;;;;;7.50;6.73;;;;;;;31.05;36.02;93760.72;5027053;28;20053;-65